메인 페이지
METAR-TAF:

METAR-TAF

공항 :

Ørsta-Volda, 노르웨이

위도: 62-11N, 경도: 006-04E, 고도: 7m

현재 날씨관측

예보는 48분 전, 14:50시(UTC)에 발표되었습니다.
여러 방향의 바람 1kt
온도 10°C
습도 87%
기압 1014 hPa
시정: 9000m
고도 1300ft 상공 구름 조금
고도 1900ft 상공 구름 보통
고도 3500ft 상공 구름 많음
소나기

METAR: ENOV 201450Z VRB01KT 9000 SHRA FEW013 SCT019 BKN035 10/08 Q1014 RMK WIND RWY 24 24003KT WIND 2090FT 26012KT

시각: 17:38 (15:38 UTC)

예보

예보는 1 시간 38분 전, 14:00시(UTC)에 발표되었습니다.
예보 대상 시간: 20일 15시부터 20일 22시까지 (UTC)
남서8kt
시정 10km 이상
고도 1200ft 상공 구름 조금
고도 3000ft 상공 구름 많음
확률 40% :
일시적
20일 15시부터 20일 22시까지 (UTC)
시정: 4000m
고도 1400ft 상공 구름 많음, 타워링 적운.
소나기, 박무,

TAF: ENOV 201400Z 2015/2022 22008KT 9999 FEW012 BKN030 PROB40 TEMPO 2015/2022 4000 SHRA BR BKN014TCU

4,000개 이상의 공항 관측 자료 및 예보 (METAR 및 TAF 보고).

지도상에서 검색 가능한 기상관측소가 노란 점과 빨간 점으로 표시되어 있습니다.

기상관측소 명을 보려면 표시 위로 마우스를 이동하세요.

날씨 관측과 예보를 보려면 클릭하세요.

지도 변경 : 확대하려면 엑스 표시가 있는 녹색 버튼, 축소하려면 빼기 표시가 있는 녹색 버튼, 다음 페이지의 지도를 보려면 녹색 화살표를 클릭하세요.


METAR-TAF: